YMML/MEL METAR and TAF weather

Enter ICAO airport designator
Station Type Date Time Source
YMML METAR 2021/01/20 23:00 UTC NOAA

YMML 202300Z 01004KT CAVOK 21/11 Q1015


Station Type Date Time Source
YMML Decoded METAR 2021/01/20 23:00 UTC NOAA

Melbourne Airport, Australia (YMML) 37-40S 144-50E 141M
Jan 20, 2021 - 06:00 PM EST / 2021.01.20 2300 UTC
Wind: from the N (010 degrees) at 5 MPH (4 KT):0
Visibility: greater than 7 mile(s):0
Temperature: 69 F (21 C)
Dew Point: 51 F (11 C)
Relative Humidity: 52%
Pressure (altimeter): 29.97 in. Hg (1015 hPa)
ob: YMML 202300Z 01004KT CAVOK 21/11 Q1015
cycle: 23

Station Type Date Time Source
YMML TAF 2021/01/20 20:00 UTC NOAA

TAF YMML 201953Z 2020/2200 32007KT CAVOK
FM202300 36012KT CAVOK
FM210400 17014KT CAVOK
FM211000 26006KT CAVOK
FM211500 35004KT CAVOK
FM211900 21005KT CAVOK

Example: see airport list